sensor_id;sensor_type;location;lat;lon;timestamp;pressure;altitude;pressure_sealevel;temperature;humidity
22181;BME280;11256;50.830;12.834;2022-09-12T00:02:53;97816.81;;;15.64;65.74
22181;BME280;11256;50.830;12.834;2022-09-12T00:07:53;97815.06;;;15.68;65.88
22181;BME280;11256;50.830;12.834;2022-09-12T00:12:54;97812.78;;;15.61;65.78
22181;BME280;11256;50.830;12.834;2022-09-12T00:17:54;97806.69;;;15.64;66.11
22181;BME280;11256;50.830;12.834;2022-09-12T00:22:55;97808.50;;;15.69;66.63
22181;BME280;11256;50.830;12.834;2022-09-12T00:27:55;97797.28;;;15.57;66.27
22181;BME280;11256;50.830;12.834;2022-09-12T00:32:56;97790.75;;;15.58;66.70
22181;BME280;11256;50.830;12.834;2022-09-12T00:37:56;97798.59;;;15.59;66.74
22181;BME280;11256;50.830;12.834;2022-09-12T00:42:56;97783.91;;;15.47;66.63
22181;BME280;11256;50.830;12.834;2022-09-12T00:48:00;97792.75;;;15.52;66.63
22181;BME280;11256;50.830;12.834;2022-09-12T00:53:05;97782.44;;;15.49;67.04
22181;BME280;11256;50.830;12.834;2022-09-12T00:58:16;97786.13;;;15.45;67.14
22181;BME280;11256;50.830;12.834;2022-09-12T01:03:21;97774.34;;;15.36;67.30
22181;BME280;11256;50.830;12.834;2022-09-12T01:08:22;97777.56;;;15.38;67.07
22181;BME280;11256;50.830;12.834;2022-09-12T01:13:24;97775.41;;;15.35;67.18
22181;BME280;11256;50.830;12.834;2022-09-12T01:18:31;97778.66;;;15.37;67.23
22181;BME280;11256;50.830;12.834;2022-09-12T01:39:40;97771.09;;;15.20;67.28
22181;BME280;11256;50.830;12.834;2022-09-12T01:50:29;97762.94;;;15.07;67.65
22181;BME280;11256;50.830;12.834;2022-09-12T01:55:34;97760.84;;;15.04;67.59
22181;BME280;11256;50.830;12.834;2022-09-12T02:00:57;97769.41;;;15.11;67.48
22181;BME280;11256;50.830;12.834;2022-09-12T02:06:07;97763.94;;;15.11;67.34
22181;BME280;11256;50.830;12.834;2022-09-12T02:11:10;97775.09;;;15.01;67.50
22181;BME280;11256;50.830;12.834;2022-09-12T02:16:24;97771.44;;;14.92;67.53
22181;BME280;11256;50.830;12.834;2022-09-12T02:21:29;97763.91;;;14.89;67.79
22181;BME280;11256;50.830;12.834;2022-09-12T02:26:35;97764.38;;;14.91;67.65
22181;BME280;11256;50.830;12.834;2022-09-12T02:31:44;97767.00;;;14.96;67.54
22181;BME280;11256;50.830;12.834;2022-09-12T02:37:00;97774.69;;;14.94;67.63
22181;BME280;11256;50.830;12.834;2022-09-12T02:42:02;97762.38;;;14.83;67.88
22181;BME280;11256;50.830;12.834;2022-09-12T02:47:07;97768.44;;;14.80;68.12
22181;BME280;11256;50.830;12.834;2022-09-12T02:52:09;97764.94;;;14.79;68.10
22181;BME280;11256;50.830;12.834;2022-09-12T02:57:18;97761.00;;;14.72;68.41
22181;BME280;11256;50.830;12.834;2022-09-12T03:02:51;97763.41;;;14.73;68.41
22181;BME280;11256;50.830;12.834;2022-09-12T03:08:14;97766.56;;;14.67;68.70
22181;BME280;11256;50.830;12.834;2022-09-12T03:24:34;97754.72;;;14.58;69.35
22181;BME280;11256;50.830;12.834;2022-09-12T03:29:37;97747.66;;;14.70;68.68
22181;BME280;11256;50.830;12.834;2022-09-12T03:34:38;97746.94;;;14.65;68.63
22181;BME280;11256;50.830;12.834;2022-09-12T03:39:39;97752.09;;;14.66;68.66
22181;BME280;11256;50.830;12.834;2022-09-12T03:44:39;97761.78;;;14.59;69.02
22181;BME280;11256;50.830;12.834;2022-09-12T03:49:39;97751.41;;;14.61;69.16
22181;BME280;11256;50.830;12.834;2022-09-12T03:54:40;97743.22;;;14.61;68.94
22181;BME280;11256;50.830;12.834;2022-09-12T03:59:40;97750.88;;;14.59;69.17
22181;BME280;11256;50.830;12.834;2022-09-12T04:04:40;97756.31;;;14.72;69.13
22181;BME280;11256;50.830;12.834;2022-09-12T04:09:42;97753.09;;;14.70;69.31
22181;BME280;11256;50.830;12.834;2022-09-12T04:14:42;97759.16;;;14.67;69.17
22181;BME280;11256;50.830;12.834;2022-09-12T04:19:43;97751.41;;;14.61;69.13
22181;BME280;11256;50.830;12.834;2022-09-12T04:24:43;97745.53;;;14.54;69.19
22181;BME280;11256;50.830;12.834;2022-09-12T04:29:43;97749.91;;;14.55;69.13
22181;BME280;11256;50.830;12.834;2022-09-12T04:34:44;97755.34;;;14.55;69.46
22181;BME280;11256;50.830;12.834;2022-09-12T04:39:45;97761.00;;;14.45;69.62
22181;BME280;11256;50.830;12.834;2022-09-12T04:44:47;97760.00;;;14.41;69.91
22181;BME280;11256;50.830;12.834;2022-09-12T04:49:47;97765.44;;;14.41;70.12
22181;BME280;11256;50.830;12.834;2022-09-12T04:54:48;97765.94;;;14.43;69.93
22181;BME280;11256;50.830;12.834;2022-09-12T04:59:49;97757.75;;;14.43;69.69
22181;BME280;11256;50.830;12.834;2022-09-12T05:04:50;97759.41;;;14.44;70.11
22181;BME280;11256;50.830;12.834;2022-09-12T05:09:51;97760.59;;;14.38;69.85
22181;BME280;11256;50.830;12.834;2022-09-12T05:14:52;97751.13;;;14.35;69.48
22181;BME280;11256;50.830;12.834;2022-09-12T05:19:52;97768.78;;;14.38;69.88
22181;BME280;11256;50.830;12.834;2022-09-12T05:24:53;97765.53;;;14.36;70.16
22181;BME280;11256;50.830;12.834;2022-09-12T05:29:53;97771.00;;;14.36;69.99
22181;BME280;11256;50.830;12.834;2022-09-12T05:34:53;97776.34;;;14.41;70.49
22181;BME280;11256;50.830;12.834;2022-09-12T05:39:54;97790.47;;;14.43;70.26
22181;BME280;11256;50.830;12.834;2022-09-12T05:44:54;97786.13;;;14.42;70.04
22181;BME280;11256;50.830;12.834;2022-09-12T05:49:54;97786.66;;;14.44;70.60
22181;BME280;11256;50.830;12.834;2022-09-12T05:54:56;97793.31;;;14.51;70.72
22181;BME280;11256;50.830;12.834;2022-09-12T05:59:56;97795.16;;;14.56;70.88
22181;BME280;11256;50.830;12.834;2022-09-12T06:04:57;97792.91;;;14.58;70.67
22181;BME280;11256;50.830;12.834;2022-09-12T06:09:57;97807.47;;;14.67;70.85
22181;BME280;11256;50.830;12.834;2022-09-12T06:15:00;97806.84;;;14.70;70.19
22181;BME280;11256;50.830;12.834;2022-09-12T06:20:01;97792.31;;;14.61;70.00
22181;BME280;11256;50.830;12.834;2022-09-12T06:25:03;97803.22;;;14.74;70.08
22181;BME280;11256;50.830;12.834;2022-09-12T06:30:04;97811.09;;;14.76;70.30
22181;BME280;11256;50.830;12.834;2022-09-12T06:35:06;97806.34;;;14.81;69.83
22181;BME280;11256;50.830;12.834;2022-09-12T06:40:06;97800.78;;;14.86;70.04
22181;BME280;11256;50.830;12.834;2022-09-12T06:45:08;97799.19;;;14.85;69.97
22181;BME280;11256;50.830;12.834;2022-09-12T06:50:08;97804.00;;;14.88;69.97
22181;BME280;11256;50.830;12.834;2022-09-12T06:55:09;97798.53;;;14.88;70.03
22181;BME280;11256;50.830;12.834;2022-09-12T07:00:10;97794.94;;;14.93;70.34
22181;BME280;11256;50.830;12.834;2022-09-12T07:05:10;97801.38;;;14.97;70.08
22181;BME280;11256;50.830;12.834;2022-09-12T07:10:12;97805.81;;;15.06;70.33
22181;BME280;11256;50.830;12.834;2022-09-12T07:15:12;97801.16;;;15.07;70.80
22181;BME280;11256;50.830;12.834;2022-09-12T07:20:12;97820.13;;;15.39;72.58
22181;BME280;11256;50.830;12.834;2022-09-12T07:25:13;97813.16;;;16.43;75.23
22181;BME280;11256;50.830;12.834;2022-09-12T07:30:13;97803.97;;;17.85;70.75
22181;BME280;11256;50.830;12.834;2022-09-12T07:35:13;97816.69;;;19.07;69.35
22181;BME280;11256;50.830;12.834;2022-09-12T07:40:14;97813.38;;;20.04;65.03
22181;BME280;11256;50.830;12.834;2022-09-12T07:45:14;97814.41;;;21.48;64.79
22181;BME280;11256;50.830;12.834;2022-09-12T07:50:15;97809.53;;;22.95;64.82
22181;BME280;11256;50.830;12.834;2022-09-12T07:55:15;97817.25;;;23.36;60.34
22181;BME280;11256;50.830;12.834;2022-09-12T08:00:16;97827.44;;;24.39;59.95
22181;BME280;11256;50.830;12.834;2022-09-12T08:05:17;97820.47;;;25.12;56.69
22181;BME280;11256;50.830;12.834;2022-09-12T08:10:17;97827.19;;;25.86;54.12
22181;BME280;11256;50.830;12.834;2022-09-12T08:15:17;97825.41;;;26.00;54.00
22181;BME280;11256;50.830;12.834;2022-09-12T08:20:19;97822.97;;;26.58;53.26
22181;BME280;11256;50.830;12.834;2022-09-12T08:25:19;97827.53;;;26.43;51.75
22181;BME280;11256;50.830;12.834;2022-09-12T08:30:19;97827.53;;;26.43;50.83
22181;BME280;11256;50.830;12.834;2022-09-12T08:35:20;97823.91;;;25.77;51.13
22181;BME280;11256;50.830;12.834;2022-09-12T08:40:20;97806.19;;;24.88;51.40
22181;BME280;11256;50.830;12.834;2022-09-12T08:45:30;97812.66;;;24.95;52.30
22181;BME280;11256;50.830;12.834;2022-09-12T08:50:33;97822.75;;;25.29;53.10
22181;BME280;11256;50.830;12.834;2022-09-12T09:06:12;97809.72;;;26.81;49.05
22181;BME280;11256;50.830;12.834;2022-09-12T09:16:24;97806.09;;;25.81;48.68
22181;BME280;11256;50.830;12.834;2022-09-12T09:22:06;97813.28;;;25.30;49.44
22181;BME280;11256;50.830;12.834;2022-09-12T09:27:17;97807.94;;;24.96;51.03
22181;BME280;11256;50.830;12.834;2022-09-12T09:32:38;97802.25;;;25.34;51.18
22181;BME280;11256;50.830;12.834;2022-09-12T09:38:00;97798.09;;;25.50;49.80
22181;BME280;11256;50.830;12.834;2022-09-12T09:43:20;97806.88;;;25.26;50.07
22181;BME280;11256;50.830;12.834;2022-09-12T09:48:31;97802.25;;;24.89;49.90
22181;BME280;11256;50.830;12.834;2022-09-12T09:53:42;97794.44;;;24.53;50.48
22181;BME280;11256;50.830;12.834;2022-09-12T09:58:45;97788.81;;;24.27;51.40
22181;BME280;11256;50.830;12.834;2022-09-12T10:03:53;97788.44;;;24.28;51.53
22181;BME280;11256;50.830;12.834;2022-09-12T10:09:04;97780.56;;;24.30;52.41
22181;BME280;11256;50.830;12.834;2022-09-12T10:19:38;97773.00;;;24.50;51.47
22181;BME280;11256;50.830;12.834;2022-09-12T10:24:40;97770.09;;;24.43;51.99
22181;BME280;11256;50.830;12.834;2022-09-12T10:35:01;97760.38;;;24.52;53.64
22181;BME280;11256;50.830;12.834;2022-09-12T10:40:05;97762.94;;;24.61;52.91
22181;BME280;11256;50.830;12.834;2022-09-12T10:45:27;97761.63;;;24.55;51.97
22181;BME280;11256;50.830;12.834;2022-09-12T10:55:36;97759.91;;;24.28;51.63
22181;BME280;11256;50.830;12.834;2022-09-12T11:00:39;97752.97;;;24.15;51.61
22181;BME280;11256;50.830;12.834;2022-09-12T11:05:54;97754.13;;;24.14;52.32
22181;BME280;11256;50.830;12.834;2022-09-12T11:11:51;97755.13;;;24.25;52.62
22181;BME280;11256;50.830;12.834;2022-09-12T11:21:40;97755.78;;;24.37;54.06
22181;BME280;11256;50.830;12.834;2022-09-12T11:32:26;97753.59;;;24.27;54.05
22181;BME280;11256;50.830;12.834;2022-09-12T11:42:46;97750.81;;;24.50;54.49
22181;BME280;11256;50.830;12.834;2022-09-12T11:47:52;97745.16;;;24.43;53.08
22181;BME280;11256;50.830;12.834;2022-09-12T11:52:58;97737.28;;;24.45;52.89
22181;BME280;11256;50.830;12.834;2022-09-12T11:57:59;97742.75;;;24.41;51.44
22181;BME280;11256;50.830;12.834;2022-09-12T12:03:17;97740.34;;;24.59;50.90
22181;BME280;11256;50.830;12.834;2022-09-12T12:08:22;97722.28;;;24.46;50.78
22181;BME280;11256;50.830;12.834;2022-09-12T12:18:31;97734.69;;;24.78;50.70
22181;BME280;11256;50.830;12.834;2022-09-12T12:23:33;97727.22;;;25.04;51.42
22181;BME280;11256;50.830;12.834;2022-09-12T12:38:43;97709.97;;;25.73;50.45
22181;BME280;11256;50.830;12.834;2022-09-12T12:43:49;97715.44;;;25.96;49.78
22181;BME280;11256;50.830;12.834;2022-09-12T12:48:57;97704.94;;;26.19;49.82
22181;BME280;11256;50.830;12.834;2022-09-12T12:54:08;97702.69;;;26.31;50.60
22181;BME280;11256;50.830;12.834;2022-09-12T12:59:24;97689.53;;;26.65;50.82
22181;BME280;11256;50.830;12.834;2022-09-12T13:04:28;97693.66;;;26.85;50.91
22181;BME280;11256;50.830;12.834;2022-09-12T13:09:35;97696.13;;;26.93;50.07
22181;BME280;11256;50.830;12.834;2022-09-12T13:15:04;97684.94;;;26.86;50.59
22181;BME280;11256;50.830;12.834;2022-09-12T13:20:27;97685.78;;;26.94;50.57
22181;BME280;11256;50.830;12.834;2022-09-12T13:25:34;97680.25;;;27.01;49.70
22181;BME280;11256;50.830;12.834;2022-09-12T13:30:37;97673.09;;;26.96;50.05
22181;BME280;11256;50.830;12.834;2022-09-12T13:35:54;97669.09;;;26.94;49.53
22181;BME280;11256;50.830;12.834;2022-09-12T13:41:39;97669.50;;;26.96;49.98
22181;BME280;11256;50.830;12.834;2022-09-12T13:46:36;97652.31;;;26.80;48.50
22181;BME280;11256;50.830;12.834;2022-09-12T13:51:37;97653.06;;;26.77;48.86
22181;BME280;11256;50.830;12.834;2022-09-12T13:56:46;97661.06;;;26.82;49.14
22181;BME280;11256;50.830;12.834;2022-09-12T14:01:47;97653.47;;;26.75;48.06
22181;BME280;11256;50.830;12.834;2022-09-12T14:06:50;97646.69;;;26.76;47.58
22181;BME280;11256;50.830;12.834;2022-09-12T14:11:51;97645.13;;;26.79;49.25
22181;BME280;11256;50.830;12.834;2022-09-12T14:16:52;97648.69;;;26.76;49.15
22181;BME280;11256;50.830;12.834;2022-09-12T14:21:55;97641.13;;;26.73;49.08
22181;BME280;11256;50.830;12.834;2022-09-12T14:26:56;97634.75;;;26.69;48.89
22181;BME280;11256;50.830;12.834;2022-09-12T14:32:01;97634.34;;;26.70;49.28
22181;BME280;11256;50.830;12.834;2022-09-12T14:37:05;97627.53;;;26.64;49.25
22181;BME280;11256;50.830;12.834;2022-09-12T14:42:12;97634.28;;;26.60;49.35
22181;BME280;11256;50.830;12.834;2022-09-12T14:47:19;97622.38;;;26.63;49.08
22181;BME280;11256;50.830;12.834;2022-09-12T14:52:26;97622.78;;;26.61;48.96
22181;BME280;11256;50.830;12.834;2022-09-12T14:57:40;97617.16;;;26.58;48.86
22181;BME280;11256;50.830;12.834;2022-09-12T15:02:43;97617.91;;;26.51;49.06
22181;BME280;11256;50.830;12.834;2022-09-12T15:07:51;97619.81;;;26.44;49.00
22181;BME280;11256;50.830;12.834;2022-09-12T15:18:13;97603.41;;;26.28;49.35
22181;BME280;11256;50.830;12.834;2022-09-12T15:23:44;97603.31;;;26.18;49.60
22181;BME280;11256;50.830;12.834;2022-09-12T15:28:45;97604.00;;;26.08;49.50
22181;BME280;11256;50.830;12.834;2022-09-12T15:33:46;97605.88;;;25.97;49.68
22181;BME280;11256;50.830;12.834;2022-09-12T15:38:47;97597.41;;;25.83;49.39
22181;BME280;11256;50.830;12.834;2022-09-12T15:43:48;97600.50;;;25.74;49.58
22181;BME280;11256;50.830;12.834;2022-09-12T15:48:48;97593.22;;;25.63;49.98
22181;BME280;11256;50.830;12.834;2022-09-12T15:53:49;97590.69;;;25.51;49.89
22181;BME280;11256;50.830;12.834;2022-09-12T15:58:50;97595.34;;;25.40;49.79
22181;BME280;11256;50.830;12.834;2022-09-12T16:03:50;97595.59;;;25.28;49.66
22181;BME280;11256;50.830;12.834;2022-09-12T16:08:51;97594.19;;;25.15;50.04
22181;BME280;11256;50.830;12.834;2022-09-12T16:13:52;97598.81;;;25.04;50.09
22181;BME280;11256;50.830;12.834;2022-09-12T16:18:53;97593.09;;;24.90;49.91
22181;BME280;11256;50.830;12.834;2022-09-12T16:23:53;97579.88;;;24.80;50.14
22181;BME280;11256;50.830;12.834;2022-09-12T16:28:55;97583.28;;;24.70;50.14
22181;BME280;11256;50.830;12.834;2022-09-12T16:33:55;97575.88;;;24.55;50.59
22181;BME280;11256;50.830;12.834;2022-09-12T16:38:56;97575.78;;;24.48;50.31
22181;BME280;11256;50.830;12.834;2022-09-12T16:43:56;97580.38;;;24.37;50.39
22181;BME280;11256;50.830;12.834;2022-09-12T16:48:57;97559.97;;;24.22;50.56
22181;BME280;11256;50.830;12.834;2022-09-12T16:53:58;97559.03;;;24.15;50.45
22181;BME280;11256;50.830;12.834;2022-09-12T16:58:58;97561.25;;;24.06;50.61
22181;BME280;11256;50.830;12.834;2022-09-12T17:03:59;97564.28;;;23.97;50.97
22181;BME280;11256;50.830;12.834;2022-09-12T17:09:00;97557.38;;;23.88;51.23
22181;BME280;11256;50.830;12.834;2022-09-12T17:14:04;97552.88;;;23.80;51.29
22181;BME280;11256;50.830;12.834;2022-09-12T17:19:06;97554.66;;;23.69;51.37
22181;BME280;11256;50.830;12.834;2022-09-12T17:24:06;97547.28;;;23.54;51.47
22181;BME280;11256;50.830;12.834;2022-09-12T17:29:06;97544.66;;;23.42;51.56
22181;BME280;11256;50.830;12.834;2022-09-12T17:34:07;97549.28;;;23.34;51.55
22181;BME280;11256;50.830;12.834;2022-09-12T17:39:08;97536.34;;;23.19;51.81
22181;BME280;11256;50.830;12.834;2022-09-12T17:44:11;97539.22;;;23.07;51.85
22181;BME280;11256;50.830;12.834;2022-09-12T17:49:14;97542.94;;;22.96;52.00
22181;BME280;11256;50.830;12.834;2022-09-12T17:54:17;97539.44;;;22.80;51.94
22181;BME280;11256;50.830;12.834;2022-09-12T17:59:19;97535.66;;;22.69;52.05
22181;BME280;11256;50.830;12.834;2022-09-12T18:04:20;97542.91;;;22.58;52.14
22181;BME280;11256;50.830;12.834;2022-09-12T18:09:21;97547.28;;;22.43;52.19
22181;BME280;11256;50.830;12.834;2022-09-12T18:14:24;97552.56;;;22.33;52.36
22181;BME280;11256;50.830;12.834;2022-09-12T18:19:27;97545.56;;;22.20;52.21
22181;BME280;11256;50.830;12.834;2022-09-12T18:24:27;97534.91;;;22.03;52.32
22181;BME280;11256;50.830;12.834;2022-09-12T18:29:28;97535.00;;;21.91;52.23
22181;BME280;11256;50.830;12.834;2022-09-12T18:34:28;97541.75;;;21.78;52.40
22181;BME280;11256;50.830;12.834;2022-09-12T18:39:29;97536.56;;;21.61;52.33
22181;BME280;11256;50.830;12.834;2022-09-12T18:44:29;97532.63;;;21.46;52.41
22181;BME280;11256;50.830;12.834;2022-09-12T18:49:30;97527.09;;;21.31;52.70
22181;BME280;11256;50.830;12.834;2022-09-12T18:54:30;97536.31;;;21.23;52.92
22181;BME280;11256;50.830;12.834;2022-09-12T18:59:32;97537.09;;;21.08;52.68
22181;BME280;11256;50.830;12.834;2022-09-12T19:04:32;97533.94;;;20.94;53.08
22181;BME280;11256;50.830;12.834;2022-09-12T19:09:32;97525.69;;;20.82;52.83
22181;BME280;11256;50.830;12.834;2022-09-12T19:14:33;97520.59;;;20.68;53.20
22181;BME280;11256;50.830;12.834;2022-09-12T19:19:33;97517.06;;;20.56;53.24
22181;BME280;11256;50.830;12.834;2022-09-12T19:24:34;97513.53;;;20.43;53.40
22181;BME280;11256;50.830;12.834;2022-09-12T19:29:34;97525.72;;;20.30;53.42
22181;BME280;11256;50.830;12.834;2022-09-12T19:34:34;97521.03;;;20.19;53.48
22181;BME280;11256;50.830;12.834;2022-09-12T19:39:35;97524.25;;;20.09;53.82
22181;BME280;11256;50.830;12.834;2022-09-12T19:44:35;97523.91;;;19.98;53.82
22181;BME280;11256;50.830;12.834;2022-09-12T19:49:35;97519.66;;;19.89;53.90
22181;BME280;11256;50.830;12.834;2022-09-12T19:54:36;97522.06;;;19.78;53.89
22181;BME280;11256;50.830;12.834;2022-09-12T19:59:36;97508.66;;;19.65;54.06
22181;BME280;11256;50.830;12.834;2022-09-12T20:04:36;97513.91;;;19.58;54.11
22181;BME280;11256;50.830;12.834;2022-09-12T20:09:38;97512.75;;;19.47;54.16
22181;BME280;11256;50.830;12.834;2022-09-12T20:14:39;97518.69;;;19.37;54.10
22181;BME280;11256;50.830;12.834;2022-09-12T20:19:39;97507.00;;;19.28;54.19
22181;BME280;11256;50.830;12.834;2022-09-12T20:24:39;97503.03;;;19.17;54.28
22181;BME280;11256;50.830;12.834;2022-09-12T20:29:40;97502.78;;;19.10;54.57
22181;BME280;11256;50.830;12.834;2022-09-12T20:34:40;97511.94;;;19.02;54.95
22181;BME280;11256;50.830;12.834;2022-09-12T20:39:40;97502.53;;;18.91;54.78
22181;BME280;11256;50.830;12.834;2022-09-12T20:44:41;97497.91;;;18.83;54.95
22181;BME280;11256;50.830;12.834;2022-09-12T20:49:41;97499.94;;;18.74;54.77
22181;BME280;11256;50.830;12.834;2022-09-12T20:54:42;97496.34;;;18.61;55.03
22181;BME280;11256;50.830;12.834;2022-09-12T20:59:42;97497.56;;;18.52;55.21
22181;BME280;11256;50.830;12.834;2022-09-12T21:04:42;97492.94;;;18.44;55.31
22181;BME280;11256;50.830;12.834;2022-09-12T21:09:43;97488.78;;;18.38;55.12
22181;BME280;11256;50.830;12.834;2022-09-12T21:14:43;97479.31;;;18.27;55.51
22181;BME280;11256;50.830;12.834;2022-09-12T21:19:43;97479.72;;;18.17;55.69
22181;BME280;11256;50.830;12.834;2022-09-12T21:24:44;97474.44;;;18.12;55.73
22181;BME280;11256;50.830;12.834;2022-09-12T21:29:44;97464.53;;;17.99;55.62
22181;BME280;11256;50.830;12.834;2022-09-12T21:34:44;97467.66;;;17.89;56.00
22181;BME280;11256;50.830;12.834;2022-09-12T21:39:45;97467.41;;;17.82;55.93
22181;BME280;11256;50.830;12.834;2022-09-12T21:44:45;97460.69;;;17.71;56.11
22181;BME280;11256;50.830;12.834;2022-09-12T21:49:46;97449.78;;;17.62;56.27
22181;BME280;11256;50.830;12.834;2022-09-12T21:54:46;97450.28;;;17.56;56.34
22181;BME280;11256;50.830;12.834;2022-09-12T21:59:46;97448.88;;;17.50;56.38
22181;BME280;11256;50.830;12.834;2022-09-12T22:04:47;97444.22;;;17.42;56.38
22181;BME280;11256;50.830;12.834;2022-09-12T22:09:49;97438.09;;;17.36;56.79
22181;BME280;11256;50.830;12.834;2022-09-12T22:14:50;97427.66;;;17.30;56.67
22181;BME280;11256;50.830;12.834;2022-09-12T22:19:50;97423.50;;;17.24;56.81
22181;BME280;11256;50.830;12.834;2022-09-12T22:24:50;97420.94;;;17.19;56.93
22181;BME280;11256;50.830;12.834;2022-09-12T22:29:52;97411.94;;;17.10;56.95
22181;BME280;11256;50.830;12.834;2022-09-12T22:34:52;97407.31;;;17.02;56.86
22181;BME280;11256;50.830;12.834;2022-09-12T22:39:53;97405.91;;;16.96;57.22
22181;BME280;11256;50.830;12.834;2022-09-12T22:44:53;97403.97;;;16.88;57.10
22181;BME280;11256;50.830;12.834;2022-09-12T22:49:53;97393.41;;;16.78;57.22
22181;BME280;11256;50.830;12.834;2022-09-12T22:54:54;97391.78;;;16.77;57.38
22181;BME280;11256;50.830;12.834;2022-09-12T22:59:54;97388.44;;;16.71;57.53
22181;BME280;11256;50.830;12.834;2022-09-12T23:04:54;97378.00;;;16.65;57.51
22181;BME280;11256;50.830;12.834;2022-09-12T23:09:55;97368.22;;;16.55;57.55
22181;BME280;11256;50.830;12.834;2022-09-12T23:14:55;97358.88;;;16.48;57.63
22181;BME280;11256;50.830;12.834;2022-09-12T23:19:55;97365.50;;;16.47;57.92
22181;BME280;11256;50.830;12.834;2022-09-12T23:24:56;97370.66;;;16.40;57.83
22181;BME280;11256;50.830;12.834;2022-09-12T23:29:56;97363.38;;;16.35;58.06
22181;BME280;11256;50.830;12.834;2022-09-12T23:34:56;97360.97;;;16.34;58.16
22181;BME280;11256;50.830;12.834;2022-09-12T23:39:58;97358.91;;;16.22;58.13
22181;BME280;11256;50.830;12.834;2022-09-12T23:44:58;97357.47;;;16.16;58.17
22181;BME280;11256;50.830;12.834;2022-09-12T23:49:58;97356.84;;;16.11;58.46
22181;BME280;11256;50.830;12.834;2022-09-12T23:54:58;97344.63;;;16.00;58.42
22181;BME280;11256;50.830;12.834;2022-09-12T23:59:59;97350.75;;;15.97;58.77
